African Highway — 3EOD8 — position and weather

sailwx.info

Track history (hours):
 
Tides and Currents Weather Stations Pressure Air Temp Water Temp Dewpoint Dewpoint Depression Visibility Wind Speed Wind Dir Waves Ship Positions

African Highway

Last reported at 2014-Sep-19 01:33 UTC. Time now 2014-Sep-19 01:50 UTC.
Position N 53°47' E 006°13'.

Length 154.5 m; beam 27.6 m.

Type: Cargo ship. MMSI: 353633000.

Date/timePositionNaut miles runAvg speedWind from/ knotsBaromVisibWave heightAir tempDewpointWater temp
2014-Sep-19 01:33N 53°47' E 006°13'1212.2
2014-Sep-19 00:33N 53°37' E 006°25'1515.4
2014-Sep-18 23:33N 53°30' E 006°48'1413.6
2014-Sep-18 22:33N 53°19' E 007°03'5 5.0
2014-Sep-18 21:32N 53°20' E 007°11'0 0.5
2014-Sep-18 20:30N 53°21' E 007°12'0 0.0
2014-Sep-18 19:33N 53°21' E 007°12'0 0.0
2014-Sep-18 18:33N 53°21' E 007°12'0 0.0
2014-Sep-18 17:33N 53°21' E 007°12'0 0.0
2014-Sep-18 16:33N 53°21' E 007°12'0 0.0
2014-Sep-18 15:33N 53°21' E 007°12'0 0.0
2014-Sep-18 14:33N 53°21' E 007°12'0 0.0
2014-Sep-18 13:33N 53°21' E 007°12'0 0.0
2014-Sep-18 12:33N 53°21' E 007°12'0 0.0
2014-Sep-18 11:33N 53°21' E 007°12'0 0.0
2014-Sep-18 10:33N 53°21' E 007°12'0 0.0
2014-Sep-18 09:33N 53°21' E 007°12'0 0.0
2014-Sep-18 08:33N 53°21' E 007°12'0 0.0
2014-Sep-18 07:33N 53°21' E 007°12'0 0.0
2014-Sep-18 06:33N 53°21' E 007°12'0 0.0
2014-Sep-18 05:33N 53°21' E 007°12'0 0.0
2014-Sep-18 04:33N 53°21' E 007°12'0 0.0
2014-Sep-18 03:33N 53°21' E 007°12'0 0.0
2014-Sep-18 02:33N 53°21' E 007°12'0 0.0
2014-Sep-18 01:33N 53°21' E 007°12'0 0.0
2014-Sep-18 00:30N 53°21' E 007°12'0 0.0
2014-Sep-17 23:33N 53°21' E 007°12'0 0.5
2014-Sep-17 22:33N 53°20' E 007°11'0 0.3
2014-Sep-17 21:33N 53°20' E 007°11'0 0.0
2014-Sep-17 20:33N 53°20' E 007°11'0 0.0
2014-Sep-17 19:33N 53°20' E 007°11'0 0.0
2014-Sep-17 18:33N 53°20' E 007°11'0 0.4
2014-Sep-17 17:33N 53°20' E 007°10'7 6.9
2014-Sep-17 16:33N 53°21' E 006°59'1212.5
2014-Sep-17 15:33N 53°31' E 006°46'1212.4
2014-Sep-17 14:33N 53°37' E 006°27'1111.4
2014-Sep-17 13:33N 53°44' E 006°12'1313.1
2014-Sep-17 12:33N 53°53' E 005°56'1515.2
2014-Sep-17 11:33N 53°56' E 005°31'1515.2
2014-Sep-17 10:33N 53°59' E 005°05'1514.6
2014-Sep-17 09:33N 53°60' E 004°40'1614.9
2014-Sep-17 08:28N 53°58' E 004°13'1514.9
2014-Sep-17 07:29N 53°56' E 003°48'9014.9
2014-Sep-17 01:26N 53°42' E 001°18'1915.7
2014-Sep-17 00:15N 53°36' E 000°48'1115.5
2014-Sep-16 23:33N 53°33' E 000°30'1212.2
2014-Sep-16 22:33N 53°32' E 000°10'9 8.1
2014-Sep-16 21:30N 53°35' W 000°04'0 0.0
2014-Sep-16 20:33N 53°35' W 000°04'0 0.0
2014-Sep-16 19:33N 53°35' W 000°04'0 0.0
2014-Sep-16 18:30N 53°35' W 000°04'0 0.0
2014-Sep-16 17:33N 53°35' W 000°04'0 0.0
2014-Sep-16 16:21N 53°35' W 000°04'0 0.0
2014-Sep-16 15:24N 53°35' W 000°04'0 0.0
2014-Sep-16 14:24N 53°35' W 000°04'0 0.0
2014-Sep-16 13:30N 53°35' W 000°04'0 0.0
2014-Sep-16 12:33N 53°35' W 000°04'0 0.0
2014-Sep-16 11:33N 53°35' W 000°04'0 0.0
2014-Sep-16 10:33N 53°35' W 000°04'4 4.1
2014-Sep-16 09:33N 53°35' E 000°03'10 9.9
2014-Sep-16 08:33N 53°33' E 000°20'5 4.7
2014-Sep-16 07:33N 53°33' E 000°27'1312.8
2014-Sep-16 06:31N 53°36' E 000°49'1715.7
2014-Sep-16 05:24N 53°42' E 001°17'3015.7
2014-Sep-16 03:27N 53°50' E 002°06'9415.2
2014-Sep-15 21:14N 54°03' E 004°45'1015.4
2014-Sep-15 20:33N 54°00' E 005°03'1615.8
2014-Sep-15 19:33N 53°56' E 005°29'1616.4
2014-Sep-15 18:33N 53°53' E 005°56'1414.4
2014-Sep-15 17:33N 53°41' E 006°11'1413.0
2014-Sep-15 16:29N 53°37' E 006°33'1414.8
2014-Sep-15 15:33N 53°28' E 006°51'1211.6
2014-Sep-15 14:33N 53°20' E 007°04'5 2.2
2014-Sep-15 12:28N 53°21' E 007°12'0 0.0
2014-Sep-15 11:31N 53°21' E 007°12'0 0.0
2014-Sep-15 10:31N 53°21' E 007°12'0 0.0
2014-Sep-15 09:31N 53°21' E 007°12'0 0.0
2014-Sep-15 08:31N 53°21' E 007°12'0 0.0
2014-Sep-15 07:31N 53°21' E 007°12'0 0.0
2014-Sep-15 06:31N 53°21' E 007°12'0 0.0
2014-Sep-15 05:31N 53°21' E 007°12'0 0.0
2014-Sep-15 04:31N 53°21' E 007°12'0 0.0
2014-Sep-15 03:31N 53°21' E 007°12'0 0.0
2014-Sep-15 02:28N 53°21' E 007°12'0 0.0
2014-Sep-15 01:31N 53°21' E 007°12'0 0.0
2014-Sep-15 00:31N 53°21' E 007°12'0 0.0
2014-Sep-14 21:31N 53°21' E 007°12'0 0.0
2014-Sep-14 20:31N 53°21' E 007°12'0 0.0
2014-Sep-14 19:31N 53°21' E 007°12'0 0.0
2014-Sep-14 18:31N 53°21' E 007°12'0 0.0
2014-Sep-14 11:25N 53°21' E 007°12'0 0.0
2014-Sep-14 10:31N 53°21' E 007°12'0 0.0
2014-Sep-14 09:31N 53°21' E 007°12'0 0.0
2014-Sep-14 08:31N 53°21' E 007°12'0 0.0
2014-Sep-14 07:31N 53°21' E 007°12'0 0.0
2014-Sep-14 06:31N 53°21' E 007°12'0 0.0
2014-Sep-14 05:28N 53°21' E 007°12'0 0.0
2014-Sep-14 04:28N 53°21' E 007°12'0 0.0
2014-Sep-14 03:31N 53°21' E 007°12'0 0.0
2014-Sep-14 02:31N 53°21' E 007°12'0 0.0
2014-Sep-14 01:31N 53°21' E 007°12'0 0.0
2014-Sep-13 21:31N 53°21' E 007°12'0 0.0
2014-Sep-13 20:28N 53°21' E 007°12'0 0.0
2014-Sep-13 19:31N 53°21' E 007°12'0 0.0
2014-Sep-13 18:31N 53°21' E 007°12'0 0.0
2014-Sep-13 17:29N 53°21' E 007°12'1 0.7
2014-Sep-13 16:33N 53°20' E 007°11'7 6.6
2014-Sep-13 15:34N 53°20' E 007°00'2512.4
2014-Sep-13 13:33N 53°37' E 006°30'1110.7
2014-Sep-13 12:34N 53°38' E 006°12'1312.8
2014-Sep-13 11:34N 53°38' E 005°51'1616.0
2014-Sep-13 10:34N 53°33' E 005°25'1616.1
2014-Sep-13 09:34N 53°28' E 004°59'1515.0
2014-Sep-13 08:34N 53°19' E 004°39'1716.9
2014-Sep-13 07:33N 53°04' E 004°26'1716.7
2014-Sep-13 06:34N 52°49' E 004°13'1616.4
2014-Sep-13 05:33N 52°38' E 003°54'1716.8
2014-Sep-13 04:33N 52°26' E 003°35'1716.6
2014-Sep-13 03:33N 52°14' E 003°16'1616.2
2014-Sep-13 02:33N 52°02' E 002°58'1515.2
2014-Sep-13 01:33N 51°54' E 002°36'1414.1
2014-Sep-13 00:33N 51°48' E 002°16'1313.4
2014-Sep-12 23:33N 51°40' E 001°59'1313.2
2014-Sep-12 22:33N 51°32' E 001°42'10 9.7
2014-Sep-12 21:34N 51°27' E 001°28'1313.1
2014-Sep-12 20:33N 51°29' E 001°07'1212.5
2014-Sep-12 19:34N 51°28' E 000°48'3 2.5
2014-Sep-12 18:33N 51°26' E 000°44'0 0.0
2014-Sep-12 17:27N 51°26' E 000°44'0 0.0
2014-Sep-12 16:33N 51°26' E 000°44'0 0.0
2014-Sep-12 15:33N 51°26' E 000°44'0 0.0
2014-Sep-12 14:33N 51°26' E 000°44'0 0.0
2014-Sep-12 13:33N 51°26' E 000°44'0 0.0
2014-Sep-12 12:33N 51°26' E 000°44'0 0.0
2014-Sep-12 11:33N 51°26' E 000°44'5 5.4
2014-Sep-12 10:34N 51°29' E 000°52'1716.6
2014-Sep-12 09:34N 51°29' E 001°19'10 9.7
2014-Sep-12 08:34N 51°28' E 001°34'10 9.8
2014-Sep-12 07:33N 51°34' E 001°46'1615.7
2014-Sep-12 06:33N 51°38' E 002°11'6014.8
2014-Sep-12 02:31N 52°23' E 003°14'1616.3
2014-Sep-12 01:33N 52°36' E 003°29'1717.4
2014-Sep-12 00:33N 52°50' E 003°46'1717.4
2014-Sep-11 23:33N 53°02' E 004°07'1717.1
2014-Sep-11 22:33N 53°14' E 004°28'1616.2
2014-Sep-11 21:33N 53°28' E 004°40'1615.8
2014-Sep-11 20:33N 53°35' E 005°04'1515.4
2014-Sep-11 19:33N 53°40' E 005°28'1615.5
2014-Sep-11 18:33N 53°44' E 005°54'1413.5
2014-Sep-11 17:33N 53°38' E 006°14'3214.7
2014-Sep-11 15:22N 53°20' E 006°60'6 1.6
2014-Sep-11 11:31N 53°20' E 007°10'0 0.0
2014-Sep-11 10:31N 53°20' E 007°10'0 0.0
2014-Sep-11 09:31N 53°20' E 007°10'0 0.0
2014-Sep-11 08:31N 53°20' E 007°10'0 0.0
2014-Sep-11 07:28N 53°20' E 007°10'0 0.0
2014-Sep-11 06:28N 53°20' E 007°10'0 0.0
2014-Sep-11 05:31N 53°20' E 007°10'0 0.0
2014-Sep-11 04:31N 53°20' E 007°10'0 0.0
2014-Sep-11 03:31N 53°20' E 007°10'0 0.0
2014-Sep-11 02:28N 53°20' E 007°10'0 0.0
2014-Sep-11 01:31N 53°20' E 007°10'0 0.0
2014-Sep-11 00:28N 53°20' E 007°10'0 0.0
2014-Sep-10 23:33N 53°20' E 007°10'6 5.7
2014-Sep-10 22:34N 53°20' E 007°00'1313.4
2014-Sep-10 21:33N 53°31' E 006°47'1515.3
2014-Sep-10 20:33N 53°37' E 006°24'10 9.6
2014-Sep-10 19:33N 53°38' E 006°08'1413.9
2014-Sep-10 18:33N 53°40' E 005°45'1615.8
2014-Sep-10 17:33N 53°51' E 005°25'1716.3
2014-Sep-10 16:32N 53°59' E 004°60'3614.8
2014-Sep-10 14:04N 53°57' E 003°58'814.7
2014-Sep-10 13:31N 53°55' E 003°44'1414.5
2014-Sep-10 12:33N 53°54' E 003°21'1714.2
2014-Sep-10 11:23N 53°54' E 002°52'5115.8
2014-Sep-10 08:10N 53°44' E 001°28'2816.5
2014-Sep-10 06:30N 53°34' E 000°45'1616.2
2014-Sep-10 05:33N 53°32' E 000°19'9 9.2
2014-Sep-10 04:33N 53°35' E 000°04'5 4.7
2014-Sep-10 03:31N 53°35' W 000°04'0 0.0
2014-Sep-10 02:31N 53°35' W 000°04'0 0.0
2014-Sep-10 01:31N 53°35' W 000°04'0 0.0
2014-Sep-10 00:31N 53°35' W 000°04'0 0.0
2014-Sep-09 23:31N 53°35' W 000°04'0 0.0
2014-Sep-09 22:31N 53°35' W 000°04'0 0.0
2014-Sep-09 21:31N 53°35' W 000°04'0 0.0
2014-Sep-09 20:25N 53°35' W 000°04'0 0.0
2014-Sep-09 19:31N 53°35' W 000°04'0 0.0
2014-Sep-09 18:25N 53°35' W 000°04'0 0.1
2014-Sep-09 17:33N 53°35' W 000°04'7 7.3
2014-Sep-09 16:33N 53°34' E 000°08'9 8.9
2014-Sep-09 15:33N 53°33' E 000°23'1211.7
2014-Sep-09 14:33N 53°34' E 000°42'1615.5
2014-Sep-09 13:32N 53°39' E 001°08'1615.8
2014-Sep-09 12:33N 53°46' E 001°32'1616.0
2014-Sep-09 11:32N 53°50' E 001°59'10615.2
2014-Sep-09 04:33N 53°60' E 004°58'1514.5
2014-Sep-09 03:33N 53°57' E 005°22'1515.5
2014-Sep-09 02:34N 53°54' E 005°47'  
Track history (hours):
 
Tides and Currents Weather Stations Pressure Air Temp Water Temp Dewpoint Dewpoint Depression Visibility Wind Speed Wind Dir Waves Ship Positions

African Highway

Last reported at 2014-Sep-19 01:33 UTC. Time now 2014-Sep-19 01:50 UTC.
Position N 53°47' E 006°13'.

Length 154.5 m; beam 27.6 m.

Type: Cargo ship. MMSI: 353633000.

Date/timePositionNaut miles runAvg speedWind from/ knotsBaromVisibWave heightAir tempDewpointWater temp
2014-Sep-19 01:33N 53°47' E 006°13'1212.2
2014-Sep-19 00:33N 53°37' E 006°25'1515.4
2014-Sep-18 23:33N 53°30' E 006°48'1413.6
2014-Sep-18 22:33N 53°19' E 007°03'5 5.0
2014-Sep-18 21:32N 53°20' E 007°11'0 0.5
2014-Sep-18 20:30N 53°21' E 007°12'0 0.0
2014-Sep-18 19:33N 53°21' E 007°12'0 0.0
2014-Sep-18 18:33N 53°21' E 007°12'0 0.0
2014-Sep-18 17:33N 53°21' E 007°12'0 0.0
2014-Sep-18 16:33N 53°21' E 007°12'0 0.0
2014-Sep-18 15:33N 53°21' E 007°12'0 0.0
2014-Sep-18 14:33N 53°21' E 007°12'0 0.0
2014-Sep-18 13:33N 53°21' E 007°12'0 0.0
2014-Sep-18 12:33N 53°21' E 007°12'0 0.0
2014-Sep-18 11:33N 53°21' E 007°12'0 0.0
2014-Sep-18 10:33N 53°21' E 007°12'0 0.0
2014-Sep-18 09:33N 53°21' E 007°12'0 0.0
2014-Sep-18 08:33N 53°21' E 007°12'0 0.0
2014-Sep-18 07:33N 53°21' E 007°12'0 0.0
2014-Sep-18 06:33N 53°21' E 007°12'0 0.0
2014-Sep-18 05:33N 53°21' E 007°12'0 0.0
2014-Sep-18 04:33N 53°21' E 007°12'0 0.0
2014-Sep-18 03:33N 53°21' E 007°12'0 0.0
2014-Sep-18 02:33N 53°21' E 007°12'0 0.0
2014-Sep-18 01:33N 53°21' E 007°12'0 0.0
2014-Sep-18 00:30N 53°21' E 007°12'0 0.0
2014-Sep-17 23:33N 53°21' E 007°12'0 0.5
2014-Sep-17 22:33N 53°20' E 007°11'0 0.3
2014-Sep-17 21:33N 53°20' E 007°11'0 0.0
2014-Sep-17 20:33N 53°20' E 007°11'0 0.0
2014-Sep-17 19:33N 53°20' E 007°11'0 0.0
2014-Sep-17 18:33N 53°20' E 007°11'0 0.4
2014-Sep-17 17:33N 53°20' E 007°10'7 6.9
2014-Sep-17 16:33N 53°21' E 006°59'1212.5
2014-Sep-17 15:33N 53°31' E 006°46'1212.4
2014-Sep-17 14:33N 53°37' E 006°27'1111.4
2014-Sep-17 13:33N 53°44' E 006°12'1313.1
2014-Sep-17 12:33N 53°53' E 005°56'1515.2
2014-Sep-17 11:33N 53°56' E 005°31'1515.2
2014-Sep-17 10:33N 53°59' E 005°05'1514.6
2014-Sep-17 09:33N 53°60' E 004°40'1614.9
2014-Sep-17 08:28N 53°58' E 004°13'1514.9
2014-Sep-17 07:29N 53°56' E 003°48'9014.9
2014-Sep-17 01:26N 53°42' E 001°18'1915.7
2014-Sep-17 00:15N 53°36' E 000°48'1115.5
2014-Sep-16 23:33N 53°33' E 000°30'1212.2
2014-Sep-16 22:33N 53°32' E 000°10'9 8.1
2014-Sep-16 21:30N 53°35' W 000°04'0 0.0
2014-Sep-16 20:33N 53°35' W 000°04'0 0.0
2014-Sep-16 19:33N 53°35' W 000°04'0 0.0
2014-Sep-16 18:30N 53°35' W 000°04'0 0.0
2014-Sep-16 17:33N 53°35' W 000°04'0 0.0
2014-Sep-16 16:21N 53°35' W 000°04'0 0.0
2014-Sep-16 15:24N 53°35' W 000°04'0 0.0
2014-Sep-16 14:24N 53°35' W 000°04'0 0.0
2014-Sep-16 13:30N 53°35' W 000°04'0 0.0
2014-Sep-16 12:33N 53°35' W 000°04'0 0.0
2014-Sep-16 11:33N 53°35' W 000°04'0 0.0
2014-Sep-16 10:33N 53°35' W 000°04'4 4.1
2014-Sep-16 09:33N 53°35' E 000°03'10 9.9
2014-Sep-16 08:33N 53°33' E 000°20'5 4.7
2014-Sep-16 07:33N 53°33' E 000°27'1312.8
2014-Sep-16 06:31N 53°36' E 000°49'1715.7
2014-Sep-16 05:24N 53°42' E 001°17'3015.7
2014-Sep-16 03:27N 53°50' E 002°06'9415.2
2014-Sep-15 21:14N 54°03' E 004°45'1015.4
2014-Sep-15 20:33N 54°00' E 005°03'1615.8
2014-Sep-15 19:33N 53°56' E 005°29'1616.4
2014-Sep-15 18:33N 53°53' E 005°56'1414.4
2014-Sep-15 17:33N 53°41' E 006°11'1413.0
2014-Sep-15 16:29N 53°37' E 006°33'1414.8
2014-Sep-15 15:33N 53°28' E 006°51'1211.6
2014-Sep-15 14:33N 53°20' E 007°04'5 2.2
2014-Sep-15 12:28N 53°21' E 007°12'0 0.0
2014-Sep-15 11:31N 53°21' E 007°12'0 0.0
2014-Sep-15 10:31N 53°21' E 007°12'0 0.0
2014-Sep-15 09:31N 53°21' E 007°12'0 0.0
2014-Sep-15 08:31N 53°21' E 007°12'0 0.0
2014-Sep-15 07:31N 53°21' E 007°12'0 0.0
2014-Sep-15 06:31N 53°21' E 007°12'0 0.0
2014-Sep-15 05:31N 53°21' E 007°12'0 0.0
2014-Sep-15 04:31N 53°21' E 007°12'0 0.0
2014-Sep-15 03:31N 53°21' E 007°12'0 0.0
2014-Sep-15 02:28N 53°21' E 007°12'0 0.0
2014-Sep-15 01:31N 53°21' E 007°12'0 0.0
2014-Sep-15 00:31N 53°21' E 007°12'0 0.0
2014-Sep-14 21:31N 53°21' E 007°12'0 0.0
2014-Sep-14 20:31N 53°21' E 007°12'0 0.0
2014-Sep-14 19:31N 53°21' E 007°12'0 0.0
2014-Sep-14 18:31N 53°21' E 007°12'0 0.0
2014-Sep-14 11:25N 53°21' E 007°12'0 0.0
2014-Sep-14 10:31N 53°21' E 007°12'0 0.0
2014-Sep-14 09:31N 53°21' E 007°12'0 0.0
2014-Sep-14 08:31N 53°21' E 007°12'0 0.0
2014-Sep-14 07:31N 53°21' E 007°12'0 0.0
2014-Sep-14 06:31N 53°21' E 007°12'0 0.0
2014-Sep-14 05:28N 53°21' E 007°12'0 0.0
2014-Sep-14 04:28N 53°21' E 007°12'0 0.0
2014-Sep-14 03:31N 53°21' E 007°12'0 0.0
2014-Sep-14 02:31N 53°21' E 007°12'0 0.0
2014-Sep-14 01:31N 53°21' E 007°12'0 0.0
2014-Sep-13 21:31N 53°21' E 007°12'0 0.0
2014-Sep-13 20:28N 53°21' E 007°12'0 0.0
2014-Sep-13 19:31N 53°21' E 007°12'0 0.0
2014-Sep-13 18:31N 53°21' E 007°12'0 0.0
2014-Sep-13 17:29N 53°21' E 007°12'1 0.7
2014-Sep-13 16:33N 53°20' E 007°11'7 6.6
2014-Sep-13 15:34N 53°20' E 007°00'2512.4
2014-Sep-13 13:33N 53°37' E 006°30'1110.7
2014-Sep-13 12:34N 53°38' E 006°12'1312.8
2014-Sep-13 11:34N 53°38' E 005°51'1616.0
2014-Sep-13 10:34N 53°33' E 005°25'1616.1
2014-Sep-13 09:34N 53°28' E 004°59'1515.0
2014-Sep-13 08:34N 53°19' E 004°39'1716.9
2014-Sep-13 07:33N 53°04' E 004°26'1716.7
2014-Sep-13 06:34N 52°49' E 004°13'1616.4
2014-Sep-13 05:33N 52°38' E 003°54'1716.8
2014-Sep-13 04:33N 52°26' E 003°35'1716.6
2014-Sep-13 03:33N 52°14' E 003°16'1616.2
2014-Sep-13 02:33N 52°02' E 002°58'1515.2
2014-Sep-13 01:33N 51°54' E 002°36'1414.1
2014-Sep-13 00:33N 51°48' E 002°16'1313.4
2014-Sep-12 23:33N 51°40' E 001°59'1313.2
2014-Sep-12 22:33N 51°32' E 001°42'10 9.7
2014-Sep-12 21:34N 51°27' E 001°28'1313.1
2014-Sep-12 20:33N 51°29' E 001°07'1212.5
2014-Sep-12 19:34N 51°28' E 000°48'3 2.5
2014-Sep-12 18:33N 51°26' E 000°44'0 0.0
2014-Sep-12 17:27N 51°26' E 000°44'0 0.0
2014-Sep-12 16:33N 51°26' E 000°44'0 0.0
2014-Sep-12 15:33N 51°26' E 000°44'0 0.0
2014-Sep-12 14:33N 51°26' E 000°44'0 0.0
2014-Sep-12 13:33N 51°26' E 000°44'0 0.0
2014-Sep-12 12:33N 51°26' E 000°44'0 0.0
2014-Sep-12 11:33N 51°26' E 000°44'5 5.4
2014-Sep-12 10:34N 51°29' E 000°52'1716.6
2014-Sep-12 09:34N 51°29' E 001°19'10 9.7
2014-Sep-12 08:34N 51°28' E 001°34'10 9.8
2014-Sep-12 07:33N 51°34' E 001°46'1615.7
2014-Sep-12 06:33N 51°38' E 002°11'6014.8
2014-Sep-12 02:31N 52°23' E 003°14'1616.3
2014-Sep-12 01:33N 52°36' E 003°29'1717.4
2014-Sep-12 00:33N 52°50' E 003°46'1717.4
2014-Sep-11 23:33N 53°02' E 004°07'1717.1
2014-Sep-11 22:33N 53°14' E 004°28'1616.2
2014-Sep-11 21:33N 53°28' E 004°40'1615.8
2014-Sep-11 20:33N 53°35' E 005°04'1515.4
2014-Sep-11 19:33N 53°40' E 005°28'1615.5
2014-Sep-11 18:33N 53°44' E 005°54'1413.5
2014-Sep-11 17:33N 53°38' E 006°14'3214.7
2014-Sep-11 15:22N 53°20' E 006°60'6 1.6
2014-Sep-11 11:31N 53°20' E 007°10'0 0.0
2014-Sep-11 10:31N 53°20' E 007°10'0 0.0
2014-Sep-11 09:31N 53°20' E 007°10'0 0.0
2014-Sep-11 08:31N 53°20' E 007°10'0 0.0
2014-Sep-11 07:28N 53°20' E 007°10'0 0.0
2014-Sep-11 06:28N 53°20' E 007°10'0 0.0
2014-Sep-11 05:31N 53°20' E 007°10'0 0.0
2014-Sep-11 04:31N 53°20' E 007°10'0 0.0
2014-Sep-11 03:31N 53°20' E 007°10'0 0.0
2014-Sep-11 02:28N 53°20' E 007°10'0 0.0
2014-Sep-11 01:31N 53°20' E 007°10'0 0.0
2014-Sep-11 00:28N 53°20' E 007°10'0 0.0
2014-Sep-10 23:33N 53°20' E 007°10'6 5.7
2014-Sep-10 22:34N 53°20' E 007°00'1313.4
2014-Sep-10 21:33N 53°31' E 006°47'1515.3
2014-Sep-10 20:33N 53°37' E 006°24'10 9.6
2014-Sep-10 19:33N 53°38' E 006°08'1413.9
2014-Sep-10 18:33N 53°40' E 005°45'1615.8
2014-Sep-10 17:33N 53°51' E 005°25'1716.3
2014-Sep-10 16:32N 53°59' E 004°60'3614.8
2014-Sep-10 14:04N 53°57' E 003°58'814.7
2014-Sep-10 13:31N 53°55' E 003°44'1414.5
2014-Sep-10 12:33N 53°54' E 003°21'1714.2
2014-Sep-10 11:23N 53°54' E 002°52'5115.8
2014-Sep-10 08:10N 53°44' E 001°28'2816.5
2014-Sep-10 06:30N 53°34' E 000°45'1616.2
2014-Sep-10 05:33N 53°32' E 000°19'9 9.2
2014-Sep-10 04:33N 53°35' E 000°04'5 4.7
2014-Sep-10 03:31N 53°35' W 000°04'0 0.0
2014-Sep-10 02:31N 53°35' W 000°04'0 0.0
2014-Sep-10 01:31N 53°35' W 000°04'0 0.0
2014-Sep-10 00:31N 53°35' W 000°04'0 0.0
2014-Sep-09 23:31N 53°35' W 000°04'0 0.0
2014-Sep-09 22:31N 53°35' W 000°04'0 0.0
2014-Sep-09 21:31N 53°35' W 000°04'0 0.0
2014-Sep-09 20:25N 53°35' W 000°04'0 0.0
2014-Sep-09 19:31N 53°35' W 000°04'0 0.0
2014-Sep-09 18:25N 53°35' W 000°04'0 0.1
2014-Sep-09 17:33N 53°35' W 000°04'7 7.3
2014-Sep-09 16:33N 53°34' E 000°08'9 8.9
2014-Sep-09 15:33N 53°33' E 000°23'1211.7
2014-Sep-09 14:33N 53°34' E 000°42'1615.5
2014-Sep-09 13:32N 53°39' E 001°08'1615.8
2014-Sep-09 12:33N 53°46' E 001°32'1616.0
2014-Sep-09 11:32N 53°50' E 001°59'10615.2
2014-Sep-09 04:33N 53°60' E 004°58'1514.5
2014-Sep-09 03:33N 53°57' E 005°22'1515.5
2014-Sep-09 02:34N 53°54' E 005°47'  

Dump ship's entire track history